Renner, South Dakota
Current Conditions -  °F | °C
As of 6:56 PM on Wednesday 17 Dec 2014 (Local Time) from KFSD Reporting Station
Scattered Clouds Scattered Clouds  
Wind Chill:   Ceiling: Unl
Heat Index: 11°   Visibility: 10mi
Dew Point:   Wind: 7mph
Humidity: 88%   Direction: 40°NE
Pressure: 30.27"   Gusts: NA
Location:  43.65°N, 96.73°W
Report Text: KFSD 180056Z 04006KT 10SM SCT090 M12/M13 A3027 RMK AO2 SLP285 T11171133
Loading
Personal Weather Stations






























Interactive Weather Map New forecast layout! Learn more

10-Day Weather Forecast

Advertisements
Track Severe Weather on mobile